createdAt,value
2024-01-17T00:00:09.344Z,51.39
2024-01-17T00:01:09.498Z,52.79
2024-01-17T00:02:09.356Z,52.50
2024-01-17T00:03:09.401Z,49.80
2024-01-17T00:04:09.286Z,50.24
2024-01-17T00:05:09.276Z,51.23
2024-01-17T00:06:09.333Z,53.30
2024-01-17T00:07:09.295Z,55.71
2024-01-17T00:08:09.283Z,52.50
2024-01-17T00:09:09.369Z,50.99
2024-01-17T00:10:09.223Z,52.02
2024-01-17T00:11:09.233Z,51.94
2024-01-17T00:12:09.336Z,51.72
2024-01-17T00:13:09.193Z,51.23
2024-01-17T00:14:09.189Z,54.23
2024-01-17T00:15:09.224Z,56.74
2024-01-17T00:16:09.168Z,53.75
2024-01-17T00:17:09.149Z,53.02
2024-01-17T00:18:09.227Z,51.22
2024-01-17T00:19:09.259Z,53.66
2024-01-17T00:20:09.157Z,53.08
2024-01-17T00:21:09.129Z,53.54
2024-01-17T00:22:09.085Z,51.20
2024-01-17T00:23:09.094Z,53.75
2024-01-17T00:24:09.100Z,55.77
2024-01-17T00:25:09.112Z,52.57
2024-01-17T00:26:09.071Z,52.92
2024-01-17T00:27:09.058Z,52.79
2024-01-17T00:28:09.041Z,52.02
2024-01-17T00:29:09.024Z,51.84
2024-01-17T00:30:09.132Z,52.89
2024-01-17T00:31:09.058Z,52.65
2024-01-17T00:32:09.030Z,48.23
2024-01-17T00:33:09.189Z,49.53
2024-01-17T00:34:09.145Z,55.00
2024-01-17T00:35:09.021Z,55.90
2024-01-17T00:36:09.034Z,51.91
2024-01-17T00:37:08.929Z,50.34
2024-01-17T00:38:08.966Z,52.27
2024-01-17T00:39:08.940Z,53.20
2024-01-17T00:40:08.896Z,53.24
2024-01-17T00:41:08.908Z,59.68
2024-01-17T00:42:08.952Z,52.07
2024-01-17T00:43:08.880Z,51.14
2024-01-17T00:44:08.859Z,50.75
2024-01-17T00:45:09.936Z,52.99
2024-01-17T00:46:08.840Z,55.77
2024-01-17T00:47:08.847Z,52.86
2024-01-17T00:48:08.906Z,53.03
2024-01-17T00:49:09.035Z,50.94
2024-01-17T00:50:08.790Z,54.99
2024-01-17T00:51:08.890Z,53.75
2024-01-17T00:52:08.837Z,52.64
2024-01-17T00:53:08.765Z,54.57
2024-01-17T00:54:08.805Z,54.89
2024-01-17T00:55:08.809Z,54.49
2024-01-17T00:56:08.756Z,47.74
2024-01-17T00:57:08.791Z,46.21
2024-01-17T00:58:08.715Z,45.97
2024-01-17T00:59:08.692Z,49.41
2024-01-17T01:00:09.055Z,45.82
2024-01-17T01:01:08.728Z,48.66
2024-01-17T01:02:08.659Z,50.81
2024-01-17T01:03:08.941Z,49.51
2024-01-17T01:04:08.764Z,50.36
2024-01-17T01:05:08.738Z,51.76
2024-01-17T01:06:08.718Z,50.23
2024-01-17T01:07:08.626Z,47.07
2024-01-17T01:08:08.648Z,45.21
2024-01-17T01:09:08.691Z,47.05
2024-01-17T01:10:08.609Z,49.84
2024-01-17T01:11:08.596Z,50.50
2024-01-17T01:12:08.765Z,54.78
2024-01-17T01:13:08.605Z,51.59
2024-01-17T01:14:08.554Z,50.79
2024-01-17T01:15:08.654Z,52.34
2024-01-17T01:16:08.566Z,50.42
2024-01-17T01:17:08.533Z,52.30
2024-01-17T01:18:08.800Z,52.06
2024-01-17T01:19:08.631Z,54.57
2024-01-17T01:20:08.507Z,59.38
2024-01-17T01:21:08.628Z,49.83
2024-01-17T01:22:08.476Z,50.87
2024-01-17T01:23:08.482Z,50.95
2024-01-17T01:24:08.486Z,48.56
2024-01-17T01:25:08.470Z,50.99
2024-01-17T01:26:08.449Z,46.51
2024-01-17T01:27:08.507Z,50.05
2024-01-17T01:28:08.431Z,50.86
2024-01-17T01:29:08.449Z,49.41
2024-01-17T01:30:08.519Z,50.95
2024-01-17T01:31:08.441Z,47.44
2024-01-17T01:32:08.396Z,51.60
2024-01-17T01:33:08.541Z,49.91
2024-01-17T01:34:08.433Z,48.33
2024-01-17T01:35:08.337Z,51.36
2024-01-17T01:36:08.395Z,51.04
2024-01-17T01:37:08.399Z,47.15
2024-01-17T01:38:08.292Z,46.28
2024-01-17T01:39:08.452Z,46.07
2024-01-17T01:40:08.322Z,47.52
2024-01-17T01:41:08.288Z,52.48
2024-01-17T01:42:08.307Z,48.67
2024-01-17T01:43:08.262Z,51.40
2024-01-17T01:44:08.262Z,49.64
2024-01-17T01:45:08.281Z,44.78
2024-01-17T01:46:08.245Z,45.70
2024-01-17T01:47:08.228Z,47.54
2024-01-17T01:48:08.293Z,51.51
2024-01-17T01:49:08.275Z,49.11
2024-01-17T01:50:40.566Z,47.26
2024-01-17T01:51:08.234Z,48.93
2024-01-17T01:52:08.223Z,50.54
2024-01-17T01:53:08.266Z,50.37
2024-01-17T01:54:08.290Z,51.92
2024-01-17T01:55:08.113Z,51.82
2024-01-17T01:56:08.122Z,48.19
2024-01-17T01:57:08.233Z,50.92
2024-01-17T01:58:08.114Z,52.34
2024-01-17T01:59:08.068Z,49.28
2024-01-17T02:00:08.110Z,48.26
2024-01-17T02:01:08.166Z,49.89
2024-01-17T02:02:08.093Z,48.86
2024-01-17T02:03:08.163Z,51.46
2024-01-17T02:04:08.096Z,47.32
2024-01-17T02:05:08.099Z,48.74
2024-01-17T02:06:08.026Z,47.62
2024-01-17T02:07:08.037Z,49.81
2024-01-17T02:08:08.003Z,46.61
2024-01-17T02:09:08.121Z,49.39
2024-01-17T02:10:07.979Z,49.21
2024-01-17T02:11:09.648Z,46.60
2024-01-17T02:12:09.068Z,49.84
2024-01-17T02:13:07.925Z,54.26
2024-01-17T02:14:07.936Z,57.99
2024-01-17T02:15:07.920Z,53.57
2024-01-17T02:16:07.915Z,49.59
2024-01-17T02:17:07.924Z,49.17
2024-01-17T02:18:07.958Z,49.62
2024-01-17T02:19:07.940Z,46.82
2024-01-17T02:20:07.859Z,48.23
2024-01-17T02:21:08.003Z,52.59
2024-01-17T02:22:07.845Z,55.17
2024-01-17T02:23:07.913Z,50.67
2024-01-17T02:24:07.932Z,50.32
2024-01-17T02:25:07.895Z,54.83
2024-01-17T02:26:07.797Z,52.80
2024-01-17T02:27:07.931Z,54.11
2024-01-17T02:28:07.807Z,53.02
2024-01-17T02:29:07.753Z,57.04
2024-01-17T02:30:07.863Z,54.97
2024-01-17T02:31:07.799Z,54.09
2024-01-17T02:32:07.730Z,54.33
2024-01-17T02:33:07.815Z,50.84
2024-01-17T02:34:07.921Z,48.64
2024-01-17T02:35:07.708Z,56.12
2024-01-17T02:36:07.718Z,50.56
2024-01-17T02:37:07.677Z,48.75
2024-01-17T02:38:07.713Z,52.66
2024-01-17T02:39:07.764Z,53.68
2024-01-17T02:40:07.658Z,53.50
2024-01-17T02:41:07.759Z,53.71
2024-01-17T02:42:07.819Z,58.44
2024-01-17T02:43:07.616Z,48.35
2024-01-17T02:44:07.618Z,50.43
2024-01-17T02:45:07.729Z,53.47
2024-01-17T02:46:07.578Z,52.26
2024-01-17T02:47:07.634Z,51.85
2024-01-17T02:48:07.632Z,51.19
2024-01-17T02:49:07.594Z,51.49
2024-01-17T02:50:07.544Z,48.60
2024-01-17T02:51:07.694Z,50.51
2024-01-17T02:52:07.526Z,60.30
2024-01-17T02:53:07.504Z,53.08
2024-01-17T02:54:07.544Z,55.47
2024-01-17T02:55:07.476Z,57.92
2024-01-17T02:56:07.485Z,52.38
2024-01-17T02:57:07.663Z,47.94
2024-01-17T02:58:07.477Z,50.21
2024-01-17T02:59:07.429Z,52.36
2024-01-17T03:00:07.516Z,56.20
2024-01-17T03:01:07.471Z,50.33
2024-01-17T03:02:07.392Z,55.03
2024-01-17T03:03:07.573Z,51.45
2024-01-17T03:04:07.416Z,55.62
2024-01-17T03:05:07.379Z,52.98
2024-01-17T03:06:07.407Z,54.17
2024-01-17T03:07:07.411Z,53.61
2024-01-17T03:08:07.376Z,55.19
2024-01-17T03:09:07.370Z,53.26
2024-01-17T03:10:07.333Z,52.78
2024-01-17T03:11:07.314Z,55.42
2024-01-17T03:12:07.336Z,55.39
2024-01-17T03:13:07.398Z,53.99
2024-01-17T03:14:07.278Z,51.00
2024-01-17T03:15:07.324Z,48.92
2024-01-17T03:16:07.258Z,57.08
2024-01-17T03:17:07.286Z,58.38
2024-01-17T03:18:07.342Z,54.59
2024-01-17T03:19:07.444Z,52.00
2024-01-17T03:20:07.352Z,53.92
2024-01-17T03:21:07.260Z,52.09
2024-01-17T03:22:07.203Z,51.07
2024-01-17T03:23:07.215Z,52.65
2024-01-17T03:24:07.238Z,50.38
2024-01-17T03:25:07.257Z,51.11
2024-01-17T03:26:07.195Z,60.34
2024-01-17T03:27:07.256Z,51.27
2024-01-17T03:28:07.134Z,52.00
2024-01-17T03:29:07.236Z,57.07
2024-01-17T03:30:07.322Z,57.20
2024-01-17T03:31:07.216Z,56.63
2024-01-17T03:32:07.115Z,55.65
2024-01-17T03:33:07.234Z,57.67
2024-01-17T03:34:07.159Z,57.11
2024-01-17T03:35:07.060Z,53.17
2024-01-17T03:36:07.210Z,57.58
2024-01-17T03:37:08.860Z,52.12
2024-01-17T03:38:07.075Z,53.77
2024-01-17T03:39:07.076Z,55.79
2024-01-17T03:40:07.024Z,57.28
2024-01-17T03:41:07.043Z,54.17
2024-01-17T03:42:07.245Z,56.18
2024-01-17T03:43:07.038Z,54.23
2024-01-17T03:44:06.982Z,54.83
2024-01-17T03:45:07.207Z,53.09
2024-01-17T03:46:06.966Z,56.40
2024-01-17T03:47:06.986Z,55.08
2024-01-17T03:48:07.069Z,57.97
2024-01-17T03:49:07.050Z,58.15
2024-01-17T03:50:06.948Z,51.66
2024-01-17T03:51:07.009Z,53.30
2024-01-17T03:52:06.898Z,57.51
2024-01-17T03:53:06.917Z,55.23
2024-01-17T03:54:06.950Z,52.48
2024-01-17T03:55:06.860Z,54.37
2024-01-17T03:56:06.880Z,53.81
2024-01-17T03:57:06.922Z,54.70
2024-01-17T03:58:06.845Z,54.63
2024-01-17T03:59:06.863Z,57.65
2024-01-17T04:00:06.955Z,56.21
2024-01-17T04:01:06.922Z,59.14
2024-01-17T04:02:07.810Z,55.17
2024-01-17T04:03:06.845Z,55.61
2024-01-17T04:04:06.808Z,53.64
2024-01-17T04:05:06.791Z,54.65
2024-01-17T04:06:06.871Z,54.09
2024-01-17T04:07:06.844Z,56.63
2024-01-17T04:08:06.755Z,55.38
2024-01-17T04:09:06.826Z,53.37
2024-01-17T04:10:06.748Z,54.33
2024-01-17T04:11:06.726Z,55.10
2024-01-17T04:12:06.814Z,55.25
2024-01-17T04:13:06.695Z,57.90
2024-01-17T04:14:06.689Z,56.26
2024-01-17T04:15:06.738Z,54.84
2024-01-17T04:16:06.669Z,58.36
2024-01-17T04:17:06.779Z,58.01
2024-01-17T04:18:06.694Z,55.72
2024-01-17T04:19:06.757Z,56.17
2024-01-17T04:20:06.619Z,56.49
2024-01-17T04:21:06.704Z,54.83
2024-01-17T04:22:06.598Z,56.95
2024-01-17T04:23:07.760Z,56.22
2024-01-17T04:24:07.715Z,56.24
2024-01-17T04:25:06.551Z,59.67
2024-01-17T04:26:06.581Z,58.05
2024-01-17T04:27:06.614Z,55.72
2024-01-17T04:28:06.536Z,55.83
2024-01-17T04:29:06.513Z,59.10
2024-01-17T04:30:06.735Z,58.10
2024-01-17T04:31:06.604Z,60.39
2024-01-17T04:32:06.474Z,57.51
2024-01-17T04:33:06.720Z,56.74
2024-01-17T04:34:06.721Z,57.96
2024-01-17T04:35:06.433Z,57.52
2024-01-17T04:36:06.493Z,60.39
2024-01-17T04:37:06.454Z,59.21
2024-01-17T04:38:06.410Z,59.32
2024-01-17T04:39:06.414Z,61.28
2024-01-17T04:40:06.408Z,59.69
2024-01-17T04:41:06.388Z,60.14
2024-01-17T04:42:06.425Z,62.15
2024-01-17T04:43:06.343Z,61.80
2024-01-17T04:44:06.355Z,57.62
2024-01-17T04:45:06.457Z,58.10
2024-01-17T04:46:06.316Z,60.32
2024-01-17T04:47:06.329Z,59.35
2024-01-17T04:48:06.369Z,60.23
2024-01-17T04:49:06.530Z,57.13
2024-01-17T04:50:06.370Z,57.51
2024-01-17T04:51:06.349Z,58.62
2024-01-17T04:52:06.273Z,59.81
2024-01-17T04:53:06.221Z,55.98
2024-01-17T04:54:07.314Z,57.60
2024-01-17T04:55:06.227Z,59.14
2024-01-17T04:56:06.203Z,58.57
2024-01-17T04:57:06.272Z,59.69
2024-01-17T04:58:06.197Z,57.69
2024-01-17T04:59:06.168Z,60.83
2024-01-17T05:00:06.231Z,60.49
2024-01-17T05:01:06.219Z,57.09
2024-01-17T05:02:06.136Z,58.37
2024-01-17T05:03:06.164Z,58.35
2024-01-17T05:04:06.232Z,58.22
2024-01-17T05:05:06.278Z,58.73
2024-01-17T05:06:06.225Z,58.87
2024-01-17T05:07:06.118Z,55.52
2024-01-17T05:08:06.097Z,60.30
2024-01-17T05:09:06.212Z,58.48
2024-01-17T05:10:06.106Z,59.11
2024-01-17T05:11:06.043Z,61.16
2024-01-17T05:12:06.102Z,58.62
2024-01-17T05:13:06.062Z,59.47
2024-01-17T05:14:06.064Z,55.79
2024-01-17T05:15:06.171Z,57.98
2024-01-17T05:16:06.027Z,56.77
2024-01-17T05:17:06.079Z,59.43
2024-01-17T05:18:06.043Z,59.52
2024-01-17T05:19:06.157Z,58.46
2024-01-17T05:20:05.999Z,60.08
2024-01-17T05:21:05.969Z,60.61
2024-01-17T05:22:05.956Z,61.13
2024-01-17T05:23:05.966Z,57.72
2024-01-17T05:24:06.039Z,62.03
2024-01-17T05:25:05.910Z,58.06
2024-01-17T05:26:05.954Z,59.65
2024-01-17T05:27:05.933Z,59.94
2024-01-17T05:28:05.882Z,59.66
2024-01-17T05:29:05.911Z,63.68
2024-01-17T05:30:05.959Z,60.10
2024-01-17T05:31:05.986Z,60.14
2024-01-17T05:32:05.862Z,63.91
2024-01-17T05:33:06.271Z,59.91
2024-01-17T05:34:06.066Z,61.25
2024-01-17T05:35:05.866Z,61.96
2024-01-17T05:36:05.839Z,60.25
2024-01-17T05:37:05.882Z,60.43
2024-01-17T05:38:05.780Z,63.33
2024-01-17T05:39:05.891Z,60.39
2024-01-17T05:40:05.810Z,62.58
2024-01-17T05:41:05.770Z,62.96
2024-01-17T05:42:05.799Z,60.39
2024-01-17T05:43:05.751Z,60.30
2024-01-17T05:44:05.742Z,61.25
2024-01-17T05:45:05.793Z,63.07
2024-01-17T05:46:05.709Z,60.94
2024-01-17T05:47:05.735Z,63.37
2024-01-17T05:48:05.787Z,62.20
2024-01-17T05:49:05.776Z,62.98
2024-01-17T05:50:05.699Z,61.83
2024-01-17T05:51:05.668Z,61.19
2024-01-17T05:52:05.641Z,58.64
2024-01-17T05:53:05.749Z,61.62
2024-01-17T05:54:05.699Z,59.86
2024-01-17T05:55:05.605Z,60.64
2024-01-17T05:56:05.666Z,60.34
2024-01-17T05:57:05.699Z,61.53
2024-01-17T05:58:05.575Z,63.51
2024-01-17T05:59:05.586Z,63.98
2024-01-17T06:00:05.707Z,65.60
2024-01-17T06:01:05.559Z,60.76
2024-01-17T06:02:05.554Z,59.61
2024-01-17T06:03:05.585Z,58.44
2024-01-17T06:04:05.549Z,60.28
2024-01-17T06:05:05.503Z,62.97
2024-01-17T06:06:05.581Z,62.85
2024-01-17T06:07:05.544Z,60.00
2024-01-17T06:08:05.502Z,61.93
2024-01-17T06:09:05.542Z,62.54
2024-01-17T06:10:05.521Z,62.38
2024-01-17T06:11:05.454Z,61.77
2024-01-17T06:12:05.469Z,61.52
2024-01-17T06:13:05.460Z,59.07
2024-01-17T06:14:06.422Z,59.37
2024-01-17T06:15:05.465Z,62.17
2024-01-17T06:16:05.386Z,60.37
2024-01-17T06:17:05.427Z,62.07
2024-01-17T06:18:05.438Z,62.74
2024-01-17T06:19:05.432Z,60.81
2024-01-17T06:20:05.344Z,61.03
2024-01-17T06:21:05.418Z,61.73
2024-01-17T06:22:05.324Z,61.55
2024-01-17T06:23:05.343Z,63.43
2024-01-17T06:24:05.405Z,62.47
2024-01-17T06:25:06.297Z,60.24
2024-01-17T06:26:05.280Z,60.74
2024-01-17T06:27:06.394Z,65.19
2024-01-17T06:28:06.292Z,62.11
2024-01-17T06:29:05.251Z,61.97
2024-01-17T06:30:05.326Z,60.20
2024-01-17T06:31:05.274Z,61.66
2024-01-17T06:32:05.216Z,60.67
2024-01-17T06:33:05.384Z,61.25
2024-01-17T06:34:05.381Z,61.35
2024-01-17T06:35:05.238Z,58.94
2024-01-17T06:36:05.203Z,60.04
2024-01-17T06:37:05.183Z,59.90
2024-01-17T06:38:05.148Z,61.80
2024-01-17T06:39:05.250Z,59.97
2024-01-17T06:40:05.149Z,58.53
2024-01-17T06:41:05.159Z,61.53
2024-01-17T06:42:05.180Z,61.20
2024-01-17T06:43:05.143Z,61.16
2024-01-17T06:44:05.107Z,57.52
2024-01-17T06:45:05.100Z,61.43
2024-01-17T06:46:05.106Z,60.21
2024-01-17T06:47:05.127Z,59.77
2024-01-17T06:48:05.166Z,62.45
2024-01-17T06:49:05.167Z,60.79
2024-01-17T06:50:05.096Z,58.77
2024-01-17T06:51:05.085Z,57.77
2024-01-17T06:52:05.046Z,59.15
2024-01-17T06:53:05.009Z,62.68
2024-01-17T06:54:05.030Z,61.91
2024-01-17T06:55:04.973Z,57.84
2024-01-17T06:56:04.999Z,59.04
2024-01-17T06:57:05.001Z,59.14
2024-01-17T06:58:04.977Z,56.25
2024-01-17T06:59:04.928Z,57.24
2024-01-17T07:00:05.007Z,59.92
2024-01-17T07:01:05.040Z,61.13
2024-01-17T07:02:04.909Z,59.39
2024-01-17T07:03:05.001Z,59.90
2024-01-17T07:04:04.978Z,55.99
2024-01-17T07:05:04.910Z,58.30
2024-01-17T07:06:04.922Z,55.75
2024-01-17T07:07:04.914Z,59.18
2024-01-17T07:08:04.889Z,59.70
2024-01-17T07:09:04.849Z,59.11
2024-01-17T07:10:04.851Z,57.83
2024-01-17T07:11:04.805Z,57.62
2024-01-17T07:12:04.851Z,57.43
2024-01-17T07:13:04.835Z,57.10
2024-01-17T07:14:04.902Z,56.21
2024-01-17T07:15:04.819Z,59.52
2024-01-17T07:16:04.759Z,61.64
2024-01-17T07:17:04.809Z,59.38
2024-01-17T07:18:04.827Z,57.88
2024-01-17T07:19:04.725Z,57.25
2024-01-17T07:20:04.733Z,58.54
2024-01-17T07:21:04.770Z,57.69
2024-01-17T07:22:04.752Z,57.82
2024-01-17T07:23:04.693Z,55.74
2024-01-17T07:24:04.750Z,57.03
2024-01-17T07:25:04.697Z,60.15
2024-01-17T07:26:04.657Z,56.73
2024-01-17T07:27:04.748Z,59.56
2024-01-17T07:28:04.652Z,62.40
2024-01-17T07:29:04.665Z,60.56
2024-01-17T07:30:04.673Z,57.75
2024-01-17T07:31:04.637Z,55.90
2024-01-17T07:32:04.606Z,54.87
2024-01-17T07:33:04.745Z,56.30
2024-01-17T07:34:04.756Z,58.34
2024-01-17T07:35:04.556Z,60.92
2024-01-17T07:36:04.597Z,56.69
2024-01-17T07:37:05.556Z,61.92
2024-01-17T07:38:04.566Z,59.80
2024-01-17T07:39:04.523Z,58.82
2024-01-17T07:40:04.512Z,56.81
2024-01-17T07:41:04.572Z,58.53
2024-01-17T07:42:04.589Z,59.68
2024-01-17T07:43:04.522Z,58.89
2024-01-17T07:44:04.488Z,60.36
2024-01-17T07:45:04.481Z,59.99
2024-01-17T07:46:04.443Z,59.80
2024-01-17T07:47:04.484Z,56.97
2024-01-17T07:48:04.516Z,54.03
2024-01-17T07:49:04.490Z,58.92
2024-01-17T07:50:04.525Z,59.41
2024-01-17T07:51:04.522Z,56.54
2024-01-17T07:52:04.385Z,59.59
2024-01-17T07:53:04.356Z,58.81
2024-01-17T07:54:04.400Z,62.74
2024-01-17T07:55:07.742Z,57.51
2024-01-17T07:56:05.345Z,57.62
2024-01-17T07:57:04.325Z,55.02
2024-01-17T07:58:04.342Z,56.21
2024-01-17T07:59:05.326Z,55.60
2024-01-17T08:00:04.346Z,56.68
2024-01-17T08:01:04.360Z,59.03
2024-01-17T08:02:04.293Z,56.67
2024-01-17T08:03:04.368Z,59.13
2024-01-17T08:04:04.324Z,59.49
2024-01-17T08:05:04.270Z,58.93
2024-01-17T08:06:04.370Z,59.31
2024-01-17T08:07:04.307Z,55.81
2024-01-17T08:08:04.230Z,53.50
2024-01-17T08:09:04.289Z,58.42
2024-01-17T08:10:07.207Z,61.56
2024-01-17T08:11:04.200Z,57.87
2024-01-17T08:12:04.243Z,60.83
2024-01-17T08:13:04.157Z,75.73
2024-01-17T08:14:04.178Z,61.81
2024-01-17T08:15:04.327Z,51.05
2024-01-17T08:16:04.134Z,56.98
2024-01-17T08:17:04.143Z,60.86
2024-01-17T08:18:04.266Z,58.11
2024-01-17T08:19:04.214Z,59.94
2024-01-17T08:20:04.083Z,55.57
2024-01-17T08:21:04.131Z,56.82
2024-01-17T08:22:04.071Z,58.07
2024-01-17T08:23:04.072Z,62.31
2024-01-17T08:24:04.100Z,56.91
2024-01-17T08:25:04.075Z,58.69
2024-01-17T08:26:04.042Z,59.00
2024-01-17T08:27:04.080Z,63.59
2024-01-17T08:28:04.044Z,60.64
2024-01-17T08:29:04.024Z,59.04
2024-01-17T08:30:04.059Z,55.99
2024-01-17T08:31:04.011Z,56.83
2024-01-17T08:32:04.018Z,58.07
2024-01-17T08:33:04.171Z,56.85
2024-01-17T08:34:04.108Z,57.44
2024-01-17T08:35:04.205Z,57.84
2024-01-17T08:36:04.012Z,58.76
2024-01-17T08:37:03.908Z,58.12
2024-01-17T08:38:03.934Z,55.57
2024-01-17T08:39:03.984Z,57.89
2024-01-17T08:40:03.892Z,57.13
2024-01-17T08:41:03.923Z,55.34
2024-01-17T08:42:03.915Z,58.21
2024-01-17T08:43:03.836Z,58.35
2024-01-17T08:44:04.004Z,54.32
2024-01-17T08:45:03.941Z,55.36
2024-01-17T08:46:03.836Z,54.27
2024-01-17T08:47:03.836Z,57.71
2024-01-17T08:48:03.845Z,61.03
2024-01-17T08:49:03.933Z,57.85
2024-01-17T08:50:03.860Z,58.70
2024-01-17T08:51:03.855Z,54.05
2024-01-17T08:52:03.751Z,58.03
2024-01-17T08:53:03.760Z,55.61
2024-01-17T08:54:03.814Z,56.27
2024-01-17T08:55:03.826Z,55.71
2024-01-17T08:56:03.739Z,56.42
2024-01-17T08:57:03.788Z,55.62
2024-01-17T08:58:03.697Z,58.27
2024-01-17T08:59:03.707Z,56.24
2024-01-17T09:00:03.762Z,55.30
2024-01-17T09:01:03.739Z,53.98
2024-01-17T09:02:03.717Z,56.48
2024-01-17T09:03:03.772Z,61.50
2024-01-17T09:04:03.635Z,53.88
2024-01-17T09:05:03.747Z,56.31
2024-01-17T09:06:03.755Z,55.89
2024-01-17T09:07:03.643Z,54.77
2024-01-17T09:08:03.660Z,60.52
2024-01-17T09:09:03.683Z,57.26
2024-01-17T09:10:03.584Z,55.61
2024-01-17T09:11:03.600Z,61.74
2024-01-17T09:12:03.646Z,53.35
2024-01-17T09:13:03.559Z,54.10
2024-01-17T09:14:03.534Z,54.97
2024-01-17T09:15:03.625Z,52.72
2024-01-17T09:16:03.516Z,54.76
2024-01-17T09:17:03.514Z,58.40
2024-01-17T09:18:03.658Z,55.97
2024-01-17T09:19:03.619Z,53.50
2024-01-17T09:20:03.554Z,57.33
2024-01-17T09:21:03.583Z,54.43
2024-01-17T09:22:03.508Z,55.63
2024-01-17T09:23:03.465Z,60.09
2024-01-17T09:24:03.477Z,58.35
2024-01-17T09:25:03.450Z,59.06
2024-01-17T09:26:06.127Z,58.86
2024-01-17T09:27:03.525Z,60.00
2024-01-17T09:28:03.412Z,60.29
2024-01-17T09:29:03.386Z,57.79
2024-01-17T09:30:03.406Z,56.41
2024-01-17T09:31:03.385Z,57.20
2024-01-17T09:32:03.385Z,55.74
2024-01-17T09:33:03.623Z,56.48
2024-01-17T09:34:03.690Z,56.73
2024-01-17T09:35:04.347Z,57.45
2024-01-17T09:36:03.704Z,58.33
2024-01-17T09:37:03.320Z,61.54
2024-01-17T09:38:04.711Z,52.93
2024-01-17T09:39:04.359Z,54.24
2024-01-17T09:40:03.265Z,61.78
2024-01-17T09:41:03.291Z,57.94
2024-01-17T09:42:03.258Z,58.78
2024-01-17T09:43:09.778Z,59.29
2024-01-17T09:44:04.381Z,56.51
2024-01-17T09:45:03.329Z,56.83
2024-01-17T09:46:03.202Z,58.11
2024-01-17T09:47:04.228Z,55.89
2024-01-17T09:48:03.303Z,60.40
2024-01-17T09:49:05.169Z,56.53
2024-01-17T09:50:04.327Z,57.17
2024-01-17T09:51:03.302Z,62.10
2024-01-17T09:52:03.168Z,57.29
2024-01-17T09:53:03.159Z,58.46
2024-01-17T09:54:03.196Z,63.15
2024-01-17T09:55:03.084Z,64.21
2024-01-17T09:56:03.095Z,60.44
2024-01-17T09:57:03.131Z,59.76
2024-01-17T09:58:03.078Z,57.42
2024-01-17T09:59:04.120Z,52.11
2024-01-17T10:00:04.119Z,59.27
2024-01-17T10:01:03.087Z,55.81
2024-01-17T10:02:03.049Z,57.96
2024-01-17T10:03:03.141Z,56.38
2024-01-17T10:04:03.081Z,57.77
2024-01-17T10:05:03.040Z,56.21
2024-01-17T10:06:03.293Z,58.05
2024-01-17T10:07:03.089Z,55.59
2024-01-17T10:08:02.992Z,57.12
2024-01-17T10:09:02.942Z,57.25
2024-01-17T10:10:02.953Z,59.99
2024-01-17T10:11:02.997Z,57.52
2024-01-17T10:12:03.001Z,55.24
2024-01-17T10:13:02.898Z,54.82
2024-01-17T10:14:02.940Z,56.99
2024-01-17T10:15:02.934Z,56.04
2024-01-17T10:16:02.885Z,58.25
2024-01-17T10:17:02.913Z,60.18
2024-01-17T10:18:02.947Z,58.36
2024-01-17T10:19:02.980Z,55.47
2024-01-17T10:20:03.024Z,53.39
2024-01-17T10:21:02.897Z,61.16
2024-01-17T10:22:02.826Z,56.31
2024-01-17T10:23:02.841Z,58.93
2024-01-17T10:24:02.867Z,54.63
2024-01-17T10:25:02.800Z,61.36
2024-01-17T10:26:02.778Z,56.20
2024-01-17T10:27:02.821Z,53.01
2024-01-17T10:28:02.793Z,57.48
2024-01-17T10:29:02.749Z,57.25
2024-01-17T10:30:02.908Z,57.90
2024-01-17T10:31:02.748Z,59.39
2024-01-17T10:32:02.731Z,59.59
2024-01-17T10:33:02.840Z,55.08
2024-01-17T10:34:02.814Z,55.24
2024-01-17T10:35:03.525Z,54.85
2024-01-17T10:36:03.776Z,59.58
2024-01-17T10:37:02.671Z,58.88
2024-01-17T10:38:02.673Z,53.58
2024-01-17T10:39:02.687Z,62.47
2024-01-17T10:40:02.636Z,60.79
2024-01-17T10:41:02.628Z,58.14
2024-01-17T10:42:02.650Z,56.80
2024-01-17T10:43:02.603Z,62.84
2024-01-17T10:44:02.595Z,59.27
2024-01-17T10:45:02.620Z,58.71
2024-01-17T10:46:02.557Z,57.44
2024-01-17T10:47:02.559Z,56.42
2024-01-17T10:48:02.658Z,56.17
2024-01-17T10:49:02.891Z,58.31
2024-01-17T10:50:02.563Z,59.01
2024-01-17T10:51:02.547Z,56.82
2024-01-17T10:52:02.479Z,54.71
2024-01-17T10:53:03.496Z,57.63
2024-01-17T10:54:02.515Z,57.74
2024-01-17T10:55:02.455Z,59.86
2024-01-17T10:56:02.484Z,56.80
2024-01-17T10:57:02.529Z,55.43
2024-01-17T10:58:02.452Z,57.96
2024-01-17T10:59:02.430Z,55.35
2024-01-17T11:00:02.508Z,57.90
2024-01-17T11:01:02.441Z,55.55
2024-01-17T11:02:02.414Z,57.73
2024-01-17T11:03:02.423Z,58.12
2024-01-17T11:04:02.415Z,58.55
2024-01-17T11:05:02.377Z,56.26
2024-01-17T11:06:02.472Z,54.62
2024-01-17T11:07:02.490Z,56.43
2024-01-17T11:08:02.322Z,58.78
2024-01-17T11:09:02.382Z,56.52
2024-01-17T11:10:02.284Z,59.59
2024-01-17T11:11:02.304Z,55.50
2024-01-17T11:12:02.369Z,54.32
2024-01-17T11:13:02.257Z,56.00
2024-01-17T11:14:02.272Z,58.18
2024-01-17T11:15:05.944Z,56.57
2024-01-17T11:16:04.256Z,57.43
2024-01-17T11:17:02.240Z,59.83
2024-01-17T11:18:02.440Z,57.26
2024-01-17T11:19:02.310Z,57.03
2024-01-17T11:20:02.245Z,59.45
2024-01-17T11:21:02.248Z,54.69
2024-01-17T11:22:02.209Z,54.53
2024-01-17T11:23:02.151Z,56.43
2024-01-17T11:24:02.245Z,61.05
2024-01-17T11:25:02.161Z,58.73
2024-01-17T11:26:02.121Z,54.73
2024-01-17T11:27:02.169Z,56.75
2024-01-17T11:28:02.125Z,56.50
2024-01-17T11:29:02.107Z,59.57
2024-01-17T11:30:02.138Z,58.28
2024-01-17T11:31:02.094Z,59.98
2024-01-17T11:32:02.105Z,59.65
2024-01-17T11:33:02.204Z,58.35
2024-01-17T11:34:03.235Z,57.40
2024-01-17T11:35:02.027Z,59.19
2024-01-17T11:36:02.130Z,55.56
2024-01-17T11:37:02.026Z,59.57
2024-01-17T11:38:02.009Z,62.25
2024-01-17T11:39:01.999Z,74.96
2024-01-17T11:40:03.027Z,57.85
2024-01-17T11:41:02.017Z,57.28
2024-01-17T11:42:02.008Z,58.08
2024-01-17T11:43:01.965Z,56.08
2024-01-17T11:44:02.948Z,56.39
2024-01-17T11:45:09.633Z,57.41
2024-01-17T11:46:03.948Z,61.28
2024-01-17T11:47:01.925Z,59.97
2024-01-17T11:48:01.937Z,56.50
2024-01-17T11:49:01.947Z,59.44
2024-01-17T11:50:01.965Z,59.19
2024-01-17T11:51:01.976Z,62.10
2024-01-17T11:52:01.925Z,61.49
2024-01-17T11:53:01.875Z,55.42
2024-01-17T11:54:01.894Z,60.89
2024-01-17T11:55:01.904Z,56.84
2024-01-17T11:56:04.167Z,54.13
2024-01-17T11:57:01.831Z,57.37
2024-01-17T11:58:01.787Z,58.96
2024-01-17T11:59:01.821Z,57.22
2024-01-17T12:00:01.877Z,59.38
2024-01-17T12:01:01.906Z,57.89
2024-01-17T12:02:01.757Z,59.91
2024-01-17T12:03:01.840Z,55.58
2024-01-17T12:04:01.736Z,59.28
2024-01-17T12:05:01.746Z,59.63
2024-01-17T12:06:01.781Z,56.16
2024-01-17T12:07:01.753Z,56.97
2024-01-17T12:08:01.744Z,58.96
2024-01-17T12:09:01.685Z,59.58
2024-01-17T12:10:01.666Z,60.54
2024-01-17T12:11:01.679Z,59.63
2024-01-17T12:12:01.775Z,60.22
2024-01-17T12:13:01.657Z,57.63
2024-01-17T12:14:01.660Z,58.09
2024-01-17T12:15:01.749Z,60.86
2024-01-17T12:16:01.683Z,58.13
2024-01-17T12:17:01.689Z,56.80
2024-01-17T12:18:01.750Z,56.52
2024-01-17T12:19:02.097Z,55.23
2024-01-17T12:20:01.695Z,63.47
2024-01-17T12:21:01.566Z,59.05
2024-01-17T12:22:01.525Z,54.40
2024-01-17T12:23:01.627Z,58.19
2024-01-17T12:24:01.594Z,57.74
2024-01-17T12:25:01.490Z,57.87
2024-01-17T12:26:01.651Z,60.98
2024-01-17T12:27:01.544Z,57.84
2024-01-17T12:28:01.472Z,59.31
2024-01-17T12:29:01.460Z,58.78
2024-01-17T12:30:01.486Z,57.26
2024-01-17T12:31:01.473Z,58.99
2024-01-17T12:32:01.414Z,56.75
2024-01-17T12:33:01.491Z,58.67
2024-01-17T12:34:01.685Z,55.28
2024-01-17T12:35:01.464Z,60.51
2024-01-17T12:36:01.500Z,57.64
2024-01-17T12:37:01.380Z,60.23
2024-01-17T12:38:01.353Z,58.48
2024-01-17T12:39:01.350Z,57.15
2024-01-17T12:40:01.317Z,57.41
2024-01-17T12:41:01.406Z,57.10
2024-01-17T12:42:01.356Z,57.70
2024-01-17T12:43:01.293Z,58.91
2024-01-17T12:44:01.273Z,57.75
2024-01-17T12:45:01.381Z,58.19
2024-01-17T12:46:01.266Z,57.01
2024-01-17T12:47:01.267Z,54.30
2024-01-17T12:48:01.427Z,54.74
2024-01-17T12:49:01.733Z,55.75
2024-01-17T12:50:01.274Z,57.56
2024-01-17T12:51:01.397Z,57.41
2024-01-17T12:52:01.189Z,56.99